Time;durP1;ratioP1;P1;durP2;ratioP2;P2;SDS_P1;SDS_P2;PMS_P1;PMS_P2;Temp;Humidity;BMP_temperature;BMP_pressure;BME280_temperature;BME280_humidity;BME280_pressure;Samples;Min_cycle;Max_cycle;Signal;HPM_P1;HPM_P2
2023/07/28 00:00:34;;;;;;;4.90;3.50;;;;;;;15.81;80.40;98106.98;136547;1287;22076;-85
2023/07/28 00:03:56;;;;;;;6.00;3.60;;;;;;;15.84;79.80;98106.73;136521;1287;22058;-85
2023/07/28 00:06:57;;;;;;;6.20;4.00;;;;;;;15.87;79.77;98103.36;136545;1287;22387;-85
2023/07/28 00:10:01;;;;;;;;;;;;;;;15.88;79.46;98095.09;136569;1287;22332;-84
2023/07/28 00:13:03;;;;;;;11.90;4.30;;;;;;;15.85;79.10;98091.98;136536;1287;22139;-85
2023/07/28 00:16:06;;;;;;;4.40;3.80;;;;;;;15.84;78.96;98090.43;136585;1287;22083;-85
2023/07/28 00:19:08;;;;;;;9.70;4.20;;;;;;;15.83;79.34;98087.46;136537;1287;22511;-85
2023/07/28 00:22:09;;;;;;;4.00;3.60;;;;;;;15.83;79.41;98085.19;136554;1287;22123;-84
2023/07/28 00:25:10;;;;;;;4.60;3.50;;;;;;;15.83;78.97;98085.54;136552;1287;22058;-85
2023/07/28 00:28:11;;;;;;;5.50;3.80;;;;;;;15.85;78.59;98082.16;136554;1276;22034;-84
2023/07/28 00:31:12;;;;;;;7.30;3.80;;;;;;;15.87;78.44;98078.77;136578;1287;22189;-85
2023/07/28 00:34:14;;;;;;;35.70;6.10;;;;;;;15.90;77.93;98074.16;136581;1287;22054;-86
2023/07/28 00:37:15;;;;;;;12.50;3.90;;;;;;;15.98;77.78;98074.86;136531;1287;22064;-86
2023/07/28 00:40:16;;;;;;;28.70;6.50;;;;;;;16.03;76.72;98076.69;136545;1287;22763;-84
2023/07/28 00:43:17;;;;;;;11.00;4.40;;;;;;;16.08;77.16;98079.71;136545;1287;22041;-83
2023/07/28 00:46:18;;;;;;;5.40;4.10;;;;;;;16.12;77.26;98073.13;136527;1287;22074;-83
2023/07/28 00:49:19;;;;;;;5.60;4.30;;;;;;;16.14;77.56;98069.77;136526;1287;22036;-84
2023/07/28 00:52:21;;;;;;;5.10;3.80;;;;;;;16.12;77.66;98069.47;136524;1287;22063;-83
2023/07/28 00:55:22;;;;;;;5.00;3.90;;;;;;;16.10;77.57;98070.19;136537;1287;22064;-83
2023/07/28 00:58:23;;;;;;;26.40;5.40;;;;;;;16.10;77.06;98071.25;136537;1287;22085;-83
2023/07/28 01:01:24;;;;;;;50.00;7.20;;;;;;;16.13;76.63;98070.66;136517;1287;22221;-83
2023/07/28 01:04:25;;;;;;;8.50;4.30;;;;;;;16.17;76.49;98070.05;136492;1287;22098;-82
2023/07/28 01:07:26;;;;;;;6.70;4.70;;;;;;;16.18;75.79;98068.43;136505;1287;22209;-83
2023/07/28 01:10:27;;;;;;;20.90;4.80;;;;;;;16.22;74.61;98068.87;136506;1287;22116;-83
2023/07/28 01:13:28;;;;;;;4.40;3.80;;;;;;;16.29;73.17;98071.17;136491;1287;22136;-83
2023/07/28 01:16:29;;;;;;;5.50;3.90;;;;;;;16.38;72.12;98074.12;136519;1287;22563;-85
2023/07/28 01:19:30;;;;;;;6.80;4.30;;;;;;;16.45;71.28;98069.58;136517;1287;22065;-83
2023/07/28 01:22:32;;;;;;;4.40;3.60;;;;;;;16.52;70.46;98073.09;136507;1287;22690;-84
2023/07/28 01:25:34;;;;;;;5.20;3.80;;;;;;;16.59;70.07;98073.28;136520;1287;22061;-83
2023/07/28 01:28:35;;;;;;;3.80;3.40;;;;;;;16.64;69.47;98071.59;136500;1287;22699;-83
2023/07/28 01:31:36;;;;;;;10.50;4.10;;;;;;;16.69;69.00;98070.27;136517;1287;22060;-84
2023/07/28 01:34:37;;;;;;;5.10;3.70;;;;;;;16.73;68.75;98064.91;136503;1287;22071;-83
2023/07/28 01:37:38;;;;;;;10.90;3.60;;;;;;;16.75;68.36;98060.61;136502;1287;22061;-84
2023/07/28 01:40:40;;;;;;;6.60;3.80;;;;;;;16.80;68.21;98059.97;136513;1287;22093;-84
2023/07/28 01:43:41;;;;;;;8.50;4.10;;;;;;;16.83;67.66;98059.36;136486;1283;22093;-83
2023/07/28 01:46:42;;;;;;;7.60;3.70;;;;;;;16.86;67.94;98056.30;136515;1287;22066;-84
2023/07/28 01:49:43;;;;;;;5.80;3.80;;;;;;;16.89;67.63;98060.27;136492;1287;22004;-84
2023/07/28 01:52:44;;;;;;;6.10;4.20;;;;;;;16.90;68.22;98058.14;136513;1276;22155;-83
2023/07/28 01:55:46;;;;;;;12.30;4.10;;;;;;;16.90;68.22;98054.27;136512;1287;22359;-84
2023/07/28 01:58:47;;;;;;;9.90;4.40;;;;;;;16.90;68.34;98050.05;136494;1287;22084;-84
2023/07/28 02:01:48;;;;;;;5.30;4.10;;;;;;;16.89;68.41;98047.77;136509;1287;22364;-82
2023/07/28 02:04:49;;;;;;;42.10;7.20;;;;;;;16.89;68.64;98045.34;136499;1287;22699;-85
2023/07/28 02:07:50;;;;;;;4.70;3.80;;;;;;;16.88;68.70;98043.42;136504;1287;22128;-86
2023/07/28 02:10:51;;;;;;;13.80;4.50;;;;;;;16.87;68.89;98041.87;136514;1287;22074;-85
2023/07/28 02:13:52;;;;;;;10.20;4.10;;;;;;;16.85;68.96;98042.96;136516;1287;22190;-84
2023/07/28 02:16:54;;;;;;;21.80;5.20;;;;;;;16.86;69.17;98043.84;136521;1287;22152;-84
2023/07/28 02:19:57;;;;;;;33.90;6.80;;;;;;;16.84;68.99;98045.27;136551;1287;22359;-84
2023/07/28 02:22:59;;;;;;;13.60;3.90;;;;;;;16.84;69.08;98055.30;136510;1287;22098;-85
2023/07/28 02:26:00;;;;;;;4.70;3.80;;;;;;;16.84;68.64;98046.15;136528;1287;22566;-84
2023/07/28 02:29:01;;;;;;;28.00;4.40;;;;;;;16.89;68.99;98041.11;136506;1287;22079;-84
2023/07/28 02:32:04;;;;;;;12.10;3.80;;;;;;;16.95;68.71;98041.66;136496;1287;22035;-84
2023/07/28 02:35:06;;;;;;;4.30;3.10;;;;;;;16.99;68.84;98038.23;136511;1287;22623;-83
2023/07/28 02:38:07;;;;;;;5.60;3.60;;;;;;;17.03;68.15;98040.91;136505;1287;22237;-84
2023/07/28 02:41:15;;;;;;;4.70;3.80;;;;;;;17.08;67.92;98038.15;136528;1287;22060;-84
2023/07/28 02:44:16;;;;;;;16.40;4.20;;;;;;;17.12;67.64;98036.98;136504;1287;22545;-85
2023/07/28 02:47:18;;;;;;;4.40;3.70;;;;;;;17.14;67.89;98037.61;136465;1287;22510;-84
2023/07/28 02:50:21;;;;;;;5.20;3.60;;;;;;;17.14;68.01;98037.61;136506;1287;22101;-85
2023/07/28 02:53:29;;;;;;;37.60;6.20;;;;;;;17.13;68.01;98033.42;136503;1287;22101;-84
2023/07/28 02:56:37;;;;;;;6.80;3.90;;;;;;;17.12;68.09;98033.46;136500;1287;22112;-84
2023/07/28 02:59:38;;;;;;;5.60;4.20;;;;;;;17.10;68.19;98029.83;136452;1287;22219;-85
2023/07/28 03:02:43;;;;;;;4.40;4.00;;;;;;;17.08;68.28;98029.35;136511;1287;22103;-84
2023/07/28 03:05:47;;;;;;;37.60;5.20;;;;;;;17.07;68.64;98031.49;136550;1287;22063;-84
2023/07/28 03:08:48;;;;;;;7.00;4.20;;;;;;;17.06;69.12;98031.52;136529;1287;22130;-83
2023/07/28 03:11:52;;;;;;;26.40;5.10;;;;;;;17.05;69.40;98029.25;136498;1287;22114;-83
2023/07/28 03:14:53;;;;;;;23.60;4.70;;;;;;;17.03;69.69;98031.06;136504;1287;22144;-83
2023/07/28 03:17:57;;;;;;;9.10;3.80;;;;;;;17.01;69.85;98027.45;136473;1286;22542;-82
2023/07/28 03:21:05;;;;;;;16.30;4.80;;;;;;;16.99;70.33;98020.10;136491;1287;22038;-84
2023/07/28 03:24:07;;;;;;;13.20;4.40;;;;;;;16.98;70.50;98018.37;136512;1287;22063;-83
2023/07/28 03:27:09;;;;;;;34.80;6.90;;;;;;;16.98;70.69;98015.77;136495;1287;22165;-84
2023/07/28 03:30:11;;;;;;;17.30;4.70;;;;;;;16.98;70.88;98009.77;136496;1287;22127;-84
2023/07/28 03:33:12;;;;;;;396.30;34.60;;;;;;;16.97;70.91;98009.26;136521;1287;22123;-81
2023/07/28 03:36:13;;;;;;;22.90;6.30;;;;;;;16.98;70.89;98009.59;136507;1287;22574;-81
2023/07/28 03:39:14;;;;;;;22.00;4.40;;;;;;;16.98;70.79;98003.08;136508;1287;22620;-83
2023/07/28 03:42:15;;;;;;;38.10;6.40;;;;;;;16.99;71.02;97999.38;136505;1287;22122;-87
2023/07/28 03:45:16;;;;;;;4.30;3.20;;;;;;;17.00;70.95;97988.81;136500;1287;22576;-84
2023/07/28 03:48:18;;;;;;;31.60;4.50;;;;;;;17.00;71.02;97983.00;136495;1287;22125;-82
2023/07/28 03:51:19;;;;;;;5.20;3.40;;;;;;;17.00;71.07;97974.58;136507;1287;22113;-83
2023/07/28 03:54:20;;;;;;;29.00;4.20;;;;;;;16.99;71.19;97968.63;136514;1285;22079;-82
2023/07/28 03:57:21;;;;;;;13.20;4.70;;;;;;;17.01;71.42;97965.75;136499;1287;22156;-83
2023/07/28 04:00:22;;;;;;;8.70;4.30;;;;;;;17.02;71.36;97963.27;136478;1287;22115;-82
2023/07/28 04:03:23;;;;;;;5.40;3.60;;;;;;;17.03;71.57;97964.98;136484;1287;22594;-83
2023/07/28 04:06:25;;;;;;;15.50;3.80;;;;;;;17.03;71.76;97956.36;136496;1287;22506;-82
2023/07/28 04:09:26;;;;;;;8.20;4.00;;;;;;;17.12;72.98;97961.23;136494;1287;22179;-84
2023/07/28 04:12:27;;;;;;;19.20;4.30;;;;;;;17.26;72.15;97959.07;136494;1287;22172;-83
2023/07/28 04:15:28;;;;;;;9.50;4.40;;;;;;;17.25;72.01;97957.50;136472;1287;22492;-84
2023/07/28 04:18:29;;;;;;;28.20;5.70;;;;;;;17.27;72.21;97953.40;136509;1287;22481;-84
2023/07/28 04:21:30;;;;;;;18.10;4.50;;;;;;;17.27;72.19;97957.61;136487;1287;22667;-85
2023/07/28 04:24:34;;;;;;;4.70;3.70;;;;;;;17.26;72.48;97954.84;136490;1287;22596;-85
2023/07/28 04:27:42;;;;;;;7.40;3.90;;;;;;;17.25;72.81;97954.33;136501;1287;22439;-85
2023/07/28 04:30:43;;;;;;;43.20;7.70;;;;;;;17.26;72.94;97949.04;136536;1287;22128;-84
2023/07/28 04:33:45;;;;;;;12.60;3.60;;;;;;;17.25;73.17;97953.27;136525;1287;22088;-85
2023/07/28 04:36:49;;;;;;;;;;;;;;;17.25;73.36;97948.36;136529;1287;22376;-84
2023/07/28 04:39:50;;;;;;;4.80;3.40;;;;;;;17.24;73.65;97946.29;136532;1287;22120;-84
2023/07/28 04:42:53;;;;;;;50.20;5.80;;;;;;;17.27;73.69;97941.64;136515;1287;22095;-83
2023/07/28 04:45:55;;;;;;;7.30;3.40;;;;;;;17.30;73.58;97948.03;136529;1287;22115;-84
2023/07/28 04:48:56;;;;;;;7.80;3.40;;;;;;;17.35;73.79;97937.55;136506;1287;22144;-84
2023/07/28 04:51:57;;;;;;;9.50;3.10;;;;;;;17.41;73.86;97933.33;136490;1287;22101;-82
2023/07/28 04:55:00;;;;;;;13.10;3.90;;;;;;;17.47;73.70;97934.72;136390;1287;22126;-82
2023/07/28 04:58:01;;;;;;;4.40;3.90;;;;;;;17.51;73.70;97941.30;136517;1288;22190;-85
2023/07/28 05:01:03;;;;;;;5.10;3.50;;;;;;;17.59;73.84;97937.00;136496;1287;22146;-84
2023/07/28 05:04:04;;;;;;;6.10;3.40;;;;;;;17.65;73.71;97937.00;136514;1287;22101;-84
2023/07/28 05:07:05;;;;;;;15.60;5.20;;;;;;;17.70;73.86;97933.87;136505;1287;22565;-84
2023/07/28 05:10:07;;;;;;;17.50;4.00;;;;;;;17.78;73.83;97929.39;136509;1287;22081;-84
2023/07/28 05:13:08;;;;;;;11.90;4.10;;;;;;;17.84;73.82;97930.27;136566;1287;22124;-83
2023/07/28 05:16:09;;;;;;;8.00;3.80;;;;;;;17.86;73.70;97926.50;136600;1287;22198;-83
2023/07/28 05:19:10;;;;;;;38.50;5.50;;;;;;;17.95;73.59;97924.98;136527;1285;22088;-83
2023/07/28 05:25:15;;;;;;;12.10;4.30;;;;;;;18.11;73.65;97922.69;133232;1305;545005;-79
2023/07/28 05:28:19;;;;;;;23.50;4.90;;;;;;;18.17;73.03;97917.74;137293;1278;22308;-84
2023/07/28 05:31:20;;;;;;;7.00;3.60;;;;;;;18.24;72.72;97917.73;137231;1278;22233;-83
2023/07/28 05:34:21;;;;;;;37.50;5.50;;;;;;;18.29;72.72;97919.83;137171;1278;22275;-83
2023/07/28 05:37:23;;;;;;;105.20;12.20;;;;;;;18.36;72.53;97919.23;137094;1275;154978;-84
2023/07/28 05:40:24;;;;;;;56.30;7.50;;;;;;;18.45;72.57;97922.29;137328;1276;22227;-83
2023/07/28 05:43:25;;;;;;;25.40;4.70;;;;;;;18.53;72.62;97909.86;137365;1276;22183;-83
2023/07/28 05:46:26;;;;;;;5.40;3.60;;;;;;;18.54;72.52;97906.65;137425;1276;22556;-83
2023/07/28 05:49:27;;;;;;;24.30;5.70;;;;;;;18.54;72.66;97908.75;137373;1275;22206;-83
2023/07/28 05:52:28;;;;;;;28.80;6.10;;;;;;;18.57;72.76;97904.77;137297;1276;22344;-85
2023/07/28 05:55:32;;;;;;;6.80;4.30;;;;;;;18.56;72.51;97900.59;137310;1276;22356;-86
2023/07/28 05:58:34;;;;;;;9.00;3.90;;;;;;;18.58;72.56;97903.17;137328;1270;22176;-85
2023/07/28 06:01:36;;;;;;;18.30;4.70;;;;;;;18.65;72.53;97897.84;137339;1275;22285;-84
2023/07/28 06:04:37;;;;;;;143.40;11.40;;;;;;;18.78;72.16;97899.65;137324;1276;22226;-87
2023/07/28 06:07:39;;;;;;;9.50;3.80;;;;;;;18.94;71.88;97899.77;137362;1276;22739;-84
2023/07/28 06:10:50;;;;;;;21.20;4.60;;;;;;;19.07;70.26;97899.65;137404;1273;22628;-85
2023/07/28 06:13:52;;;;;;;36.20;5.90;;;;;;;19.22;69.88;97900.52;137596;1266;22251;-85
2023/07/28 06:16:53;;;;;;;66.30;7.80;;;;;;;19.38;69.13;97901.65;137602;1273;22215;-83
2023/07/28 06:19:54;;;;;;;12.30;4.50;;;;;;;19.55;68.52;97904.92;137606;1273;22348;-84
2023/07/28 06:22:56;;;;;;;40.30;6.10;;;;;;;19.62;67.76;97917.02;137544;1273;22211;-86
2023/07/28 06:25:57;;;;;;;134.70;10.60;;;;;;;19.65;67.73;97922.52;137623;1267;22270;-84
2023/07/28 06:28:58;;;;;;;22.90;5.10;;;;;;;19.64;67.40;97925.05;137606;1272;22306;-86
2023/07/28 06:31:59;;;;;;;9.50;3.80;;;;;;;19.64;67.28;97926.61;137623;1272;22271;-84
2023/07/28 06:35:01;;;;;;;16.20;5.20;;;;;;;19.67;67.23;97929.66;137523;1260;22238;-82
2023/07/28 06:38:02;;;;;;;65.10;7.90;;;;;;;19.67;67.24;97924.94;137342;1273;22321;-84
2023/07/28 06:41:06;;;;;;;7.90;3.60;;;;;;;19.63;67.21;97927.18;137376;1273;22547;-85
2023/07/28 06:44:08;;;;;;;5.80;3.30;;;;;;;19.59;67.90;97930.37;137299;1273;22261;-84
2023/07/28 06:47:09;;;;;;;6.80;3.50;;;;;;;19.61;68.22;97933.80;137279;1273;22237;-84
2023/07/28 06:50:10;;;;;;;5.70;4.00;;;;;;;19.67;68.35;97937.95;137640;1273;22372;-84
2023/07/28 06:53:11;;;;;;;4.50;3.20;;;;;;;19.72;68.22;97939.02;137565;1273;22364;-86
2023/07/28 06:56:13;;;;;;;27.60;4.60;;;;;;;19.67;68.14;97945.21;137367;1273;22763;-85
2023/07/28 06:59:14;;;;;;;6.90;3.50;;;;;;;19.78;67.84;97944.08;137623;1272;22244;-84
2023/07/28 07:02:16;;;;;;;7.30;3.40;;;;;;;19.83;67.63;97944.05;137612;1273;22241;-83
2023/07/28 07:05:17;;;;;;;9.80;4.00;;;;;;;19.79;68.20;97941.73;137606;1273;22267;-83
2023/07/28 07:08:18;;;;;;;11.30;3.50;;;;;;;19.77;68.65;97943.44;137615;1266;22228;-86
2023/07/28 07:11:19;;;;;;;12.20;4.30;;;;;;;19.77;68.48;97949.08;137570;1273;23325;-82
2023/07/28 07:14:20;;;;;;;6.10;4.00;;;;;;;19.77;68.82;97951.71;137592;1273;22309;-84
2023/07/28 07:17:21;;;;;;;13.20;4.30;;;;;;;19.72;70.27;97958.63;137596;1273;22715;-83
2023/07/28 07:20:23;;;;;;;9.40;4.10;;;;;;;19.57;72.05;97959.55;137560;1272;22677;-83
2023/07/28 07:23:24;;;;;;;7.60;4.20;;;;;;;19.39;73.13;97966.89;137554;1272;22218;-83
2023/07/28 07:26:25;;;;;;;6.60;3.90;;;;;;;19.29;74.63;97965.88;137596;1272;22700;-81
2023/07/28 07:29:26;;;;;;;6.80;4.30;;;;;;;19.22;75.82;97960.83;137546;1272;22230;-81
2023/07/28 07:32:27;;;;;;;7.60;4.70;;;;;;;19.13;76.65;97959.92;137554;1272;22996;-83
2023/07/28 07:35:29;;;;;;;9.20;5.00;;;;;;;19.09;78.01;97951.98;137595;1273;22891;-82
2023/07/28 07:38:30;;;;;;;9.70;4.90;;;;;;;19.09;78.56;97951.79;137591;1266;22171;-82
2023/07/28 07:41:31;;;;;;;8.80;5.60;;;;;;;19.10;79.55;97951.22;137601;1266;22246;-82
2023/07/28 07:44:32;;;;;;;6.70;5.20;;;;;;;19.07;79.59;97951.84;137585;1273;22180;-84
2023/07/28 07:47:36;;;;;;;7.30;5.50;;;;;;;18.99;79.81;97956.89;137534;1273;22533;-84
2023/07/28 07:50:37;;;;;;;10.00;5.20;;;;;;;18.91;80.70;97962.80;137577;1273;22186;-84
2023/07/28 07:53:38;;;;;;;7.50;5.10;;;;;;;18.87;81.45;97963.30;137459;1266;22481;-83
2023/07/28 07:56:40;;;;;;;6.80;4.40;;;;;;;18.87;82.38;97971.09;137582;1273;22226;-83
2023/07/28 07:59:41;;;;;;;6.30;4.50;;;;;;;18.82;82.36;97974.27;137610;1273;22692;-84
2023/07/28 08:02:42;;;;;;;6.20;5.10;;;;;;;18.86;83.05;97975.34;137550;1273;22254;-84
2023/07/28 08:05:43;;;;;;;12.10;5.20;;;;;;;18.94;84.34;97973.64;137305;1273;22404;-83
2023/07/28 08:08:45;;;;;;;7.90;4.60;;;;;;;19.02;84.65;97973.17;137460;1273;22191;-85
2023/07/28 08:11:46;;;;;;;4.90;4.10;;;;;;;19.10;84.96;97975.38;137609;1273;22224;-84
2023/07/28 08:14:47;;;;;;;4.90;3.80;;;;;;;19.18;84.45;97968.93;137586;1266;22219;-84
2023/07/28 08:17:50;;;;;;;7.90;3.70;;;;;;;19.27;84.16;97967.37;137524;1273;22686;-79
2023/07/28 08:20:51;;;;;;;6.80;4.00;;;;;;;19.38;84.48;97969.94;137488;1273;22240;-78
2023/07/28 08:23:52;;;;;;;3.50;3.20;;;;;;;19.43;84.93;97969.21;137587;1273;22217;-85
2023/07/28 08:26:54;;;;;;;3.30;2.90;;;;;;;19.41;84.63;97970.36;137616;1267;22219;-86
2023/07/28 08:29:55;;;;;;;9.60;4.00;;;;;;;19.31;84.95;97974.60;137471;1273;24262;-86
2023/07/28 08:32:57;;;;;;;4.20;3.80;;;;;;;19.24;85.63;97976.64;137437;1273;22724;-86
2023/07/28 08:36:02;;;;;;;7.70;3.80;;;;;;;19.20;86.45;97975.39;137509;1273;22541;-86
2023/07/28 08:39:04;;;;;;;5.20;3.10;;;;;;;19.22;87.20;97973.91;137627;1273;22771;-86
2023/07/28 08:42:05;;;;;;;4.50;3.00;;;;;;;19.24;87.19;97976.80;137595;1273;22970;-85
2023/07/28 08:45:06;;;;;;;3.40;2.90;;;;;;;19.31;87.89;97976.20;137614;1273;22171;-85
2023/07/28 08:48:08;;;;;;;3.90;3.30;;;;;;;19.27;87.48;97977.40;137630;1273;22333;-83
2023/07/28 08:51:09;;;;;;;4.10;3.10;;;;;;;19.19;88.56;97973.13;137471;1273;23105;-84
2023/07/28 08:54:15;;;;;;;3.50;3.00;;;;;;;19.11;89.45;97971.12;137465;1273;22577;-86
2023/07/28 08:57:19;;;;;;;5.30;3.30;;;;;;;19.08;89.79;97975.62;137598;1273;22302;-82
2023/07/28 09:00:21;;;;;;;3.70;2.40;;;;;;;19.26;90.11;97978.88;137617;1273;22313;-83
2023/07/28 09:03:27;;;;;;;4.30;3.70;;;;;;;19.35;89.08;97979.42;137585;1273;22219;-83
2023/07/28 09:06:29;;;;;;;53.20;43.90;;;;;;;19.49;89.50;97977.50;137569;1273;22223;-83
2023/07/28 09:09:30;;;;;;;4.90;3.50;;;;;;;19.79;89.28;97978.27;137470;1273;22270;-82
2023/07/28 09:12:31;;;;;;;4.50;3.50;;;;;;;19.88;88.35;97979.17;137613;1273;22219;-82
2023/07/28 09:15:32;;;;;;;2.60;2.40;;;;;;;19.89;88.42;97977.90;137561;1273;22742;-82
2023/07/28 09:18:33;;;;;;;3.00;2.70;;;;;;;19.85;88.54;97978.41;137428;1273;22210;-82
2023/07/28 09:21:35;;;;;;;4.60;3.10;;;;;;;19.92;88.97;97977.77;137518;1273;22108;-83
2023/07/28 09:24:36;;;;;;;2.80;2.40;;;;;;;20.00;88.92;97974.66;137561;1273;22180;-83
2023/07/28 09:27:37;;;;;;;3.80;2.70;;;;;;;19.93;88.89;97975.46;137464;1273;22207;-82
2023/07/28 09:30:38;;;;;;;3.60;2.70;;;;;;;20.10;89.30;97972.16;137310;1273;22262;-82
2023/07/28 09:33:42;;;;;;;2.60;2.30;;;;;;;20.41;88.76;97973.19;137545;1273;23158;-84
2023/07/28 09:36:43;;;;;;;2.60;2.40;;;;;;;20.61;87.44;97972.70;137514;1273;22245;-83
2023/07/28 09:39:45;;;;;;;4.20;3.00;;;;;;;20.68;87.70;97970.45;137577;1269;22711;-83
2023/07/28 09:42:49;;;;;;;7.00;5.50;;;;;;;20.48;87.35;97970.23;137420;1273;22228;-82
2023/07/28 09:45:51;;;;;;;19.30;12.60;;;;;;;20.26;88.34;97967.77;137548;1273;22175;-83
2023/07/28 09:48:52;;;;;;;4.10;3.70;;;;;;;20.33;89.07;97966.42;137572;1272;22712;-83
2023/07/28 09:51:53;;;;;;;3.40;2.40;;;;;;;20.48;89.08;97965.99;137544;1273;22407;-82
2023/07/28 09:54:54;;;;;;;4.80;2.70;;;;;;;20.79;87.93;97962.77;137577;1273;22248;-80
2023/07/28 09:57:55;;;;;;;2.90;2.50;;;;;;;21.05;87.34;97966.77;137544;1273;22207;-81
2023/07/28 10:00:56;;;;;;;3.00;2.70;;;;;;;21.02;86.92;97962.68;137579;1273;22216;-84
2023/07/28 10:03:58;;;;;;;4.10;2.10;;;;;;;20.94;87.05;97966.72;137543;1273;22625;-83
2023/07/28 10:06:59;;;;;;;2.50;2.30;;;;;;;20.80;87.27;97968.73;137534;1273;22262;-83
2023/07/28 10:10:01;;;;;;;2.40;2.20;;;;;;;20.69;87.47;97967.25;137612;1273;22184;-84
2023/07/28 10:13:02;;;;;;;5.20;4.30;;;;;;;20.87;88.12;97968.98;137540;1273;22268;-79
2023/07/28 10:16:03;;;;;;;2.50;2.30;;;;;;;21.06;87.62;97965.15;137578;1272;22623;-82
2023/07/28 10:19:05;;;;;;;3.30;2.50;;;;;;;21.13;86.50;97969.06;137530;1273;22542;-83
2023/07/28 10:22:06;;;;;;;2.60;2.40;;;;;;;21.08;86.69;97970.54;137526;1273;22188;-83
2023/07/28 10:25:08;;;;;;;3.50;3.00;;;;;;;20.90;86.61;97969.02;137368;1273;22435;-82
2023/07/28 10:28:11;;;;;;;10.70;3.80;;;;;;;20.83;87.67;97971.42;137528;1270;22208;-83
2023/07/28 10:31:14;;;;;;;7.70;5.80;;;;;;;20.92;88.06;97969.81;137503;1273;22538;-82
2023/07/28 10:34:15;;;;;;;5.20;3.50;;;;;;;20.95;87.54;97964.70;137450;1273;22748;-82
2023/07/28 10:37:18;;;;;;;4.30;3.60;;;;;;;20.96;87.28;97966.96;137470;1273;22228;-84
2023/07/28 10:40:22;;;;;;;8.80;5.40;;;;;;;21.02;87.40;97962.81;137388;1273;22634;-83
2023/07/28 10:43:23;;;;;;;6.10;3.40;;;;;;;21.32;86.76;97954.59;137364;1272;22305;-82
2023/07/28 10:46:24;;;;;;;7.10;4.70;;;;;;;21.60;84.82;97947.48;137477;1273;22219;-82
2023/07/28 10:49:26;;;;;;;4.20;3.80;;;;;;;21.98;86.47;97951.39;137581;1273;22797;-83
2023/07/28 10:52:30;;;;;;;4.60;4.00;;;;;;;22.35;84.47;97955.42;137589;1273;22371;-84
2023/07/28 10:55:31;;;;;;;5.50;4.20;;;;;;;22.64;82.85;97957.89;137551;1270;22221;-83
2023/07/28 10:58:32;;;;;;;4.40;4.00;;;;;;;22.89;81.73;97962.16;137530;1263;22558;-81
2023/07/28 11:01:34;;;;;;;6.10;4.60;;;;;;;22.92;81.53;97967.48;137548;1273;22393;-82
2023/07/28 11:04:37;;;;;;;4.20;3.50;;;;;;;22.76;80.69;97972.52;137568;1270;22193;-81
2023/07/28 11:07:38;;;;;;;11.60;5.00;;;;;;;22.29;80.61;97969.20;137538;1273;22343;-78
2023/07/28 11:10:40;;;;;;;4.10;3.70;;;;;;;22.00;82.02;97976.80;137515;1273;22250;-82
2023/07/28 11:13:41;;;;;;;6.80;5.70;;;;;;;21.57;81.20;97984.09;137578;1273;22242;-80
2023/07/28 11:16:44;;;;;;;8.40;6.70;;;;;;;21.22;84.87;97982.65;137588;1273;22567;-82
2023/07/28 11:19:45;;;;;;;30.80;25.00;;;;;;;21.36;85.17;97983.11;137583;1272;22615;-82
2023/07/28 11:22:46;;;;;;;19.20;13.90;;;;;;;21.62;83.92;97978.53;137462;1273;22224;-82
2023/07/28 11:25:47;;;;;;;9.60;5.80;;;;;;;22.10;83.18;97974.70;137617;1273;22281;-81
2023/07/28 11:28:48;;;;;;;4.40;3.80;;;;;;;22.71;80.95;97978.63;137570;1273;22213;-82
2023/07/28 11:31:50;;;;;;;5.30;3.60;;;;;;;22.86;79.63;97979.45;137548;1273;22578;-82
2023/07/28 11:34:53;;;;;;;4.30;3.50;;;;;;;22.81;78.83;97976.71;137631;1273;22262;-84
2023/07/28 11:37:55;;;;;;;8.40;3.90;;;;;;;23.15;79.29;97974.45;137602;1273;22487;-82
2023/07/28 11:40:56;;;;;;;7.50;3.80;;;;;;;23.55;77.19;97970.77;137571;1272;22224;-84
2023/07/28 11:43:58;;;;;;;4.20;3.70;;;;;;;23.50;76.33;97973.63;137447;1273;22205;-85
2023/07/28 11:47:02;;;;;;;3.70;3.30;;;;;;;23.53;76.18;97969.41;137544;1273;22247;-84
2023/07/28 11:50:04;;;;;;;3.80;3.30;;;;;;;23.58;74.61;97971.64;137524;1272;22743;-83
2023/07/28 11:53:05;;;;;;;3.00;2.70;;;;;;;23.26;74.44;97975.30;137458;1272;22193;-84
2023/07/28 11:56:07;;;;;;;5.40;3.20;;;;;;;22.98;75.84;97971.05;137523;1273;22312;-83
2023/07/28 11:59:08;;;;;;;5.00;3.30;;;;;;;22.67;77.00;97973.16;137425;1272;22260;-82
2023/07/28 12:02:09;;;;;;;12.80;3.70;;;;;;;22.67;78.44;97971.58;137493;1272;22664;-81
2023/07/28 12:05:10;;;;;;;3.30;3.10;;;;;;;23.29;77.91;97971.36;137523;1273;22316;-83
2023/07/28 12:08:11;;;;;;;6.70;3.50;;;;;;;23.86;75.38;97969.03;137433;1273;22251;-84
2023/07/28 12:11:12;;;;;;;8.00;3.60;;;;;;;24.24;72.97;97969.22;137439;1273;22234;-84
2023/07/28 12:14:13;;;;;;;3.20;2.70;;;;;;;24.52;70.43;97969.25;137537;1270;22336;-81
2023/07/28 12:17:17;;;;;;;7.10;3.20;;;;;;;24.30;70.04;97970.67;137501;1273;22385;-81
2023/07/28 12:20:19;;;;;;;6.50;4.10;;;;;;;24.20;70.10;97966.04;137466;1273;22505;-81
2023/07/28 12:23:20;;;;;;;5.00;3.70;;;;;;;23.97;71.58;97965.23;137431;1273;22250;-82
2023/07/28 12:26:22;;;;;;;3.50;3.20;;;;;;;23.57;72.06;97960.64;137424;1273;22209;-80
2023/07/28 12:29:23;;;;;;;7.60;3.30;;;;;;;23.12;73.34;97963.25;137419;1273;23062;-80
2023/07/28 12:32:25;;;;;;;17.60;4.50;;;;;;;22.73;74.50;97968.96;137448;1273;22192;-83
2023/07/28 12:35:30;;;;;;;3.60;3.10;;;;;;;22.53;75.51;97970.13;137437;1273;22591;-81
2023/07/28 12:38:31;;;;;;;8.30;3.70;;;;;;;22.40;76.18;97970.39;137479;1273;22218;-80
2023/07/28 12:41:32;;;;;;;9.60;3.20;;;;;;;22.71;76.09;97971.70;137499;1273;22370;-81
2023/07/28 12:44:34;;;;;;;4.50;3.00;;;;;;;23.17;74.67;97970.59;137428;1273;22399;-81
2023/07/28 12:47:35;;;;;;;10.80;3.40;;;;;;;23.67;72.55;97970.27;137491;1273;22320;-81
2023/07/28 12:50:36;;;;;;;5.40;4.00;;;;;;;23.91;71.81;97973.73;137574;1273;22385;-81
2023/07/28 12:53:37;;;;;;;6.40;3.50;;;;;;;24.15;70.97;97975.21;137559;1273;22203;-82
2023/07/28 12:56:38;;;;;;;44.80;33.00;;;;;;;24.27;69.64;97974.73;137574;1273;22269;-81
2023/07/28 12:59:39;;;;;;;23.50;13.30;;;;;;;24.34;69.90;97971.84;137571;1273;22218;-81
2023/07/28 13:02:41;;;;;;;35.70;21.10;;;;;;;24.37;69.01;97964.38;137551;1273;22187;-82
2023/07/28 13:05:47;;;;;;;6.00;3.40;;;;;;;24.22;68.65;97955.08;137545;1273;22212;-81
2023/07/28 13:08:49;;;;;;;11.70;8.80;;;;;;;24.38;69.64;97958.32;137572;1270;22746;-81
2023/07/28 13:11:50;;;;;;;3.40;2.70;;;;;;;24.37;67.74;97960.15;137554;1253;22263;-80
2023/07/28 13:14:51;;;;;;;4.10;3.50;;;;;;;24.34;68.68;97957.11;137522;1263;22265;-81
2023/07/28 13:17:52;;;;;;;3.40;2.90;;;;;;;24.75;67.45;97961.10;137557;1273;22345;-80
2023/07/28 13:20:53;;;;;;;3.30;3.00;;;;;;;24.97;67.21;97958.73;137505;1273;22270;-81
2023/07/28 13:23:54;;;;;;;3.00;2.80;;;;;;;25.32;66.18;97957.67;137466;1273;22235;-82
2023/07/28 13:26:55;;;;;;;9.60;2.90;;;;;;;25.62;63.55;97951.54;137493;1273;22375;-81
2023/07/28 13:29:57;;;;;;;2.60;2.40;;;;;;;25.45;63.14;97956.16;137528;1273;22281;-82
2023/07/28 13:32:59;;;;;;;5.60;4.40;;;;;;;25.59;63.43;97965.98;137518;1273;22199;-82
2023/07/28 13:36:00;;;;;;;2.70;2.50;;;;;;;25.65;63.03;97969.88;137514;1273;22221;-81
2023/07/28 13:39:01;;;;;;;4.20;2.60;;;;;;;25.34;62.84;97957.91;137548;1273;22854;-83
2023/07/28 13:42:02;;;;;;;2.60;2.20;;;;;;;25.09;63.43;97960.16;137512;1273;22694;-81
2023/07/28 13:45:03;;;;;;;2.90;2.50;;;;;;;25.02;63.11;97953.13;137521;1273;22197;-82
2023/07/28 13:48:04;;;;;;;5.30;2.50;;;;;;;25.34;63.01;97957.06;137560;1273;22261;-81
2023/07/28 13:51:05;;;;;;;8.70;5.40;;;;;;;25.64;61.46;97950.70;137555;1267;22175;-83
2023/07/28 13:54:06;;;;;;;2.30;2.10;;;;;;;25.59;61.85;97935.73;137538;1273;22241;-84
2023/07/28 13:57:07;;;;;;;42.40;24.90;;;;;;;25.42;60.76;97937.16;137555;1273;22272;-84
2023/07/28 14:00:09;;;;;;;3.60;2.70;;;;;;;25.35;60.92;97922.92;137585;1273;22329;-85
2023/07/28 14:03:20;;;;;;;2.60;2.40;;;;;;;25.46;60.59;97918.19;137530;1273;23007;-85